East Keansburg, New Jersey
Current Conditions -  °F | °C
As of 11:35 AM on Monday 24 Nov 2014 (Local Time) from KLDJ Reporting Station
Overcast Overcast  
Wind Chill: 73°   Ceiling: 3500
Heat Index: 73°   Visibility: 10mi
Dew Point: 64°   Wind: 5mph
Humidity: 73%   Direction: 210°SSW
Pressure: 29.65"   Gusts: NA
Location:  40.4416°N, 74.1294°W
Report Text: KLDJ 241635Z AUTO 21004KT 10SM SCT023 SCT028 OVC035 23/18 A2965 RMK AO2 T02300179
Loading
Personal Weather Stations






























Interactive Weather Map New forecast layout! Learn more

10-Day Weather Forecast

Advertisements
Track Severe Weather on mobile